sensor_id;sensor_type;location;lat;lon;timestamp;P1;durP1;ratioP1;P2;durP2;ratioP2
68386;SDS011;55338;43.062;25.624;2022-08-05T00:00:04;8.93;;;4.35;;
68386;SDS011;55338;43.062;25.624;2022-08-05T00:02:30;7.75;;;4.45;;
68386;SDS011;55338;43.062;25.624;2022-08-05T00:04:56;9.50;;;4.30;;
68386;SDS011;55338;43.062;25.624;2022-08-05T00:07:22;7.90;;;4.47;;
68386;SDS011;55338;43.062;25.624;2022-08-05T00:09:48;7.13;;;4.25;;
68386;SDS011;55338;43.062;25.624;2022-08-05T00:12:14;8.07;;;4.37;;
68386;SDS011;55338;43.062;25.624;2022-08-05T00:14:42;7.70;;;4.35;;
68386;SDS011;55338;43.062;25.624;2022-08-05T00:17:07;7.83;;;4.00;;
68386;SDS011;55338;43.062;25.624;2022-08-05T00:19:33;8.48;;;4.03;;
68386;SDS011;55338;43.062;25.624;2022-08-05T00:21:59;7.97;;;4.30;;
68386;SDS011;55338;43.062;25.624;2022-08-05T00:24:26;7.55;;;4.28;;
68386;SDS011;55338;43.062;25.624;2022-08-05T00:26:52;7.65;;;4.32;;
68386;SDS011;55338;43.062;25.624;2022-08-05T00:29:18;6.82;;;4.10;;
68386;SDS011;55338;43.062;25.624;2022-08-05T00:31:47;8.43;;;5.03;;
68386;SDS011;55338;43.062;25.624;2022-08-05T00:34:13;6.78;;;3.67;;
68386;SDS011;55338;43.062;25.624;2022-08-05T00:36:39;8.00;;;4.30;;
68386;SDS011;55338;43.062;25.624;2022-08-05T00:39:05;7.53;;;4.18;;
68386;SDS011;55338;43.062;25.624;2022-08-05T00:41:32;6.47;;;4.00;;
68386;SDS011;55338;43.062;25.624;2022-08-05T00:43:58;6.32;;;3.83;;
68386;SDS011;55338;43.062;25.624;2022-08-05T00:46:24;7.43;;;4.20;;
68386;SDS011;55338;43.062;25.624;2022-08-05T00:48:50;10.05;;;4.20;;
68386;SDS011;55338;43.062;25.624;2022-08-05T00:51:17;6.63;;;4.63;;
68386;SDS011;55338;43.062;25.624;2022-08-05T00:53:44;8.67;;;4.20;;
68386;SDS011;55338;43.062;25.624;2022-08-05T00:56:10;6.55;;;4.47;;
68386;SDS011;55338;43.062;25.624;2022-08-05T00:58:36;7.00;;;4.35;;
68386;SDS011;55338;43.062;25.624;2022-08-05T01:01:02;6.85;;;4.78;;
68386;SDS011;55338;43.062;25.624;2022-08-05T01:03:29;8.23;;;5.00;;
68386;SDS011;55338;43.062;25.624;2022-08-05T01:05:55;11.43;;;4.30;;
68386;SDS011;55338;43.062;25.624;2022-08-05T01:08:21;7.60;;;4.73;;
68386;SDS011;55338;43.062;25.624;2022-08-05T01:10:54;6.00;;;4.30;;
68386;SDS011;55338;43.062;25.624;2022-08-05T01:13:27;6.88;;;4.63;;
68386;SDS011;55338;43.062;25.624;2022-08-05T01:16:04;7.78;;;4.53;;
68386;SDS011;55338;43.062;25.624;2022-08-05T01:18:42;9.15;;;5.07;;
68386;SDS011;55338;43.062;25.624;2022-08-05T01:29:57;7.20;;;4.55;;
68386;SDS011;55338;43.062;25.624;2022-08-05T01:32:27;7.93;;;4.30;;
68386;SDS011;55338;43.062;25.624;2022-08-05T01:35:05;6.03;;;4.45;;
68386;SDS011;55338;43.062;25.624;2022-08-05T01:40:14;9.18;;;4.05;;
68386;SDS011;55338;43.062;25.624;2022-08-05T01:42:43;7.72;;;4.68;;
68386;SDS011;55338;43.062;25.624;2022-08-05T01:45:11;10.75;;;5.00;;
68386;SDS011;55338;43.062;25.624;2022-08-05T01:47:38;6.88;;;4.60;;
68386;SDS011;55338;43.062;25.624;2022-08-05T01:50:17;8.40;;;4.37;;
68386;SDS011;55338;43.062;25.624;2022-08-05T01:52:49;7.30;;;4.55;;
68386;SDS011;55338;43.062;25.624;2022-08-05T01:55:18;8.50;;;4.72;;
68386;SDS011;55338;43.062;25.624;2022-08-05T01:57:46;7.80;;;5.07;;
68386;SDS011;55338;43.062;25.624;2022-08-05T02:00:15;7.93;;;5.15;;
68386;SDS011;55338;43.062;25.624;2022-08-05T02:02:44;8.87;;;5.13;;
68386;SDS011;55338;43.062;25.624;2022-08-05T02:05:16;6.30;;;4.43;;
68386;SDS011;55338;43.062;25.624;2022-08-05T02:07:45;7.13;;;4.68;;
68386;SDS011;55338;43.062;25.624;2022-08-05T02:10:12;9.25;;;4.43;;
68386;SDS011;55338;43.062;25.624;2022-08-05T02:12:58;6.20;;;4.30;;
68386;SDS011;55338;43.062;25.624;2022-08-05T02:15:33;6.73;;;4.63;;
68386;SDS011;55338;43.062;25.624;2022-08-05T02:18:05;7.82;;;4.32;;
68386;SDS011;55338;43.062;25.624;2022-08-05T02:23:23;9.82;;;4.93;;
68386;SDS011;55338;43.062;25.624;2022-08-05T02:25:53;9.07;;;5.10;;
68386;SDS011;55338;43.062;25.624;2022-08-05T02:28:22;11.77;;;5.07;;
68386;SDS011;55338;43.062;25.624;2022-08-05T02:30:52;10.07;;;5.32;;
68386;SDS011;55338;43.062;25.624;2022-08-05T02:33:21;9.02;;;4.63;;
68386;SDS011;55338;43.062;25.624;2022-08-05T02:35:50;9.45;;;4.82;;
68386;SDS011;55338;43.062;25.624;2022-08-05T02:38:19;27.35;;;5.60;;
68386;SDS011;55338;43.062;25.624;2022-08-05T02:40:46;8.83;;;4.83;;
68386;SDS011;55338;43.062;25.624;2022-08-05T02:43:12;7.80;;;5.10;;
68386;SDS011;55338;43.062;25.624;2022-08-05T02:45:39;11.93;;;4.70;;
68386;SDS011;55338;43.062;25.624;2022-08-05T02:48:07;11.43;;;5.43;;
68386;SDS011;55338;43.062;25.624;2022-08-05T02:50:34;8.60;;;5.20;;
68386;SDS011;55338;43.062;25.624;2022-08-05T02:53:01;12.40;;;5.70;;
68386;SDS011;55338;43.062;25.624;2022-08-05T02:55:28;8.90;;;5.55;;
68386;SDS011;55338;43.062;25.624;2022-08-05T02:57:55;8.10;;;5.00;;
68386;SDS011;55338;43.062;25.624;2022-08-05T03:00:23;9.95;;;4.90;;
68386;SDS011;55338;43.062;25.624;2022-08-05T03:02:50;8.00;;;5.23;;
68386;SDS011;55338;43.062;25.624;2022-08-05T03:05:17;10.32;;;4.88;;
68386;SDS011;55338;43.062;25.624;2022-08-05T03:07:44;15.77;;;5.43;;
68386;SDS011;55338;43.062;25.624;2022-08-05T03:10:10;12.75;;;4.97;;
68386;SDS011;55338;43.062;25.624;2022-08-05T03:12:38;8.88;;;5.43;;
68386;SDS011;55338;43.062;25.624;2022-08-05T03:15:05;18.27;;;5.57;;
68386;SDS011;55338;43.062;25.624;2022-08-05T03:17:33;10.88;;;5.43;;
68386;SDS011;55338;43.062;25.624;2022-08-05T03:19:59;7.53;;;5.15;;
68386;SDS011;55338;43.062;25.624;2022-08-05T03:22:25;8.85;;;4.95;;
68386;SDS011;55338;43.062;25.624;2022-08-05T03:24:51;9.77;;;4.83;;
68386;SDS011;55338;43.062;25.624;2022-08-05T03:27:18;14.82;;;5.20;;
68386;SDS011;55338;43.062;25.624;2022-08-05T03:29:45;6.75;;;4.38;;
68386;SDS011;55338;43.062;25.624;2022-08-05T03:32:11;9.68;;;4.78;;
68386;SDS011;55338;43.062;25.624;2022-08-05T03:34:37;13.88;;;5.85;;
68386;SDS011;55338;43.062;25.624;2022-08-05T03:37:04;8.30;;;5.80;;
68386;SDS011;55338;43.062;25.624;2022-08-05T03:39:30;10.38;;;5.18;;
68386;SDS011;55338;43.062;25.624;2022-08-05T03:41:56;12.85;;;4.40;;
68386;SDS011;55338;43.062;25.624;2022-08-05T03:44:23;9.40;;;4.43;;
68386;SDS011;55338;43.062;25.624;2022-08-05T03:46:49;8.18;;;4.53;;
68386;SDS011;55338;43.062;25.624;2022-08-05T03:49:15;8.10;;;4.70;;
68386;SDS011;55338;43.062;25.624;2022-08-05T03:51:41;9.80;;;4.93;;
68386;SDS011;55338;43.062;25.624;2022-08-05T03:57:09;10.32;;;4.95;;
68386;SDS011;55338;43.062;25.624;2022-08-05T03:59:39;7.80;;;4.80;;
68386;SDS011;55338;43.062;25.624;2022-08-05T04:02:07;9.10;;;4.47;;
68386;SDS011;55338;43.062;25.624;2022-08-05T04:04:35;8.50;;;4.50;;
68386;SDS011;55338;43.062;25.624;2022-08-05T04:07:02;9.00;;;4.72;;
68386;SDS011;55338;43.062;25.624;2022-08-05T04:09:29;8.98;;;4.55;;
68386;SDS011;55338;43.062;25.624;2022-08-05T04:11:56;10.50;;;4.60;;
68386;SDS011;55338;43.062;25.624;2022-08-05T04:14:23;10.23;;;5.20;;
68386;SDS011;55338;43.062;25.624;2022-08-05T04:16:50;7.43;;;4.90;;
68386;SDS011;55338;43.062;25.624;2022-08-05T04:19:17;9.82;;;4.47;;
68386;SDS011;55338;43.062;25.624;2022-08-05T04:21:43;7.37;;;4.57;;
68386;SDS011;55338;43.062;25.624;2022-08-05T04:24:09;9.10;;;5.07;;
68386;SDS011;55338;43.062;25.624;2022-08-05T04:26:35;15.20;;;4.80;;
68386;SDS011;55338;43.062;25.624;2022-08-05T04:29:00;8.73;;;5.20;;
68386;SDS011;55338;43.062;25.624;2022-08-05T04:31:26;10.15;;;6.05;;
68386;SDS011;55338;43.062;25.624;2022-08-05T04:33:52;13.97;;;6.63;;
68386;SDS011;55338;43.062;25.624;2022-08-05T04:36:18;32.38;;;11.63;;
68386;SDS011;55338;43.062;25.624;2022-08-05T04:38:44;20.00;;;9.60;;
68386;SDS011;55338;43.062;25.624;2022-08-05T04:41:10;22.15;;;9.18;;
68386;SDS011;55338;43.062;25.624;2022-08-05T04:43:36;20.30;;;8.00;;
68386;SDS011;55338;43.062;25.624;2022-08-05T04:46:03;21.52;;;9.90;;
68386;SDS011;55338;43.062;25.624;2022-08-05T04:48:29;22.20;;;10.00;;
68386;SDS011;55338;43.062;25.624;2022-08-05T04:50:55;23.50;;;11.03;;
68386;SDS011;55338;43.062;25.624;2022-08-05T04:53:21;23.98;;;13.82;;
68386;SDS011;55338;43.062;25.624;2022-08-05T04:55:47;30.42;;;16.35;;
68386;SDS011;55338;43.062;25.624;2022-08-05T04:58:14;29.15;;;16.52;;
68386;SDS011;55338;43.062;25.624;2022-08-05T05:00:41;25.47;;;16.23;;
68386;SDS011;55338;43.062;25.624;2022-08-05T05:03:08;30.83;;;16.42;;
68386;SDS011;55338;43.062;25.624;2022-08-05T05:05:35;25.40;;;14.27;;
68386;SDS011;55338;43.062;25.624;2022-08-05T05:10:32;12.77;;;7.97;;
68386;SDS011;55338;43.062;25.624;2022-08-05T05:13:09;14.90;;;6.80;;
68386;SDS011;55338;43.062;25.624;2022-08-05T05:15:39;17.00;;;7.88;;
68386;SDS011;55338;43.062;25.624;2022-08-05T05:18:06;13.60;;;7.22;;
68386;SDS011;55338;43.062;25.624;2022-08-05T05:20:33;17.35;;;7.78;;
68386;SDS011;55338;43.062;25.624;2022-08-05T05:23:00;16.75;;;8.50;;
68386;SDS011;55338;43.062;25.624;2022-08-05T05:25:28;17.57;;;8.33;;
68386;SDS011;55338;43.062;25.624;2022-08-05T05:27:54;14.52;;;9.40;;
68386;SDS011;55338;43.062;25.624;2022-08-05T05:30:21;18.42;;;11.23;;
68386;SDS011;55338;43.062;25.624;2022-08-05T05:32:47;27.80;;;15.48;;
68386;SDS011;55338;43.062;25.624;2022-08-05T05:35:14;43.90;;;17.30;;
68386;SDS011;55338;43.062;25.624;2022-08-05T05:37:51;28.30;;;15.48;;
68386;SDS011;55338;43.062;25.624;2022-08-05T05:40:22;36.95;;;17.63;;
68386;SDS011;55338;43.062;25.624;2022-08-05T05:42:48;37.67;;;20.20;;
68386;SDS011;55338;43.062;25.624;2022-08-05T05:45:15;41.30;;;20.20;;
68386;SDS011;55338;43.062;25.624;2022-08-05T05:47:41;33.50;;;18.17;;
68386;SDS011;55338;43.062;25.624;2022-08-05T05:50:08;30.98;;;16.65;;
68386;SDS011;55338;43.062;25.624;2022-08-05T05:52:35;30.38;;;17.25;;
68386;SDS011;55338;43.062;25.624;2022-08-05T05:55:05;40.33;;;19.45;;
68386;SDS011;55338;43.062;25.624;2022-08-05T05:57:33;27.53;;;18.00;;
68386;SDS011;55338;43.062;25.624;2022-08-05T06:00:00;34.33;;;18.48;;
68386;SDS011;55338;43.062;25.624;2022-08-05T06:02:26;25.92;;;16.38;;
68386;SDS011;55338;43.062;25.624;2022-08-05T06:04:51;21.30;;;14.30;;
68386;SDS011;55338;43.062;25.624;2022-08-05T06:07:17;20.63;;;11.85;;
68386;SDS011;55338;43.062;25.624;2022-08-05T06:09:43;29.10;;;14.47;;
68386;SDS011;55338;43.062;25.624;2022-08-05T06:12:09;27.15;;;16.55;;
68386;SDS011;55338;43.062;25.624;2022-08-05T06:14:34;23.67;;;12.90;;
68386;SDS011;55338;43.062;25.624;2022-08-05T06:17:00;25.03;;;11.97;;
68386;SDS011;55338;43.062;25.624;2022-08-05T06:19:27;25.88;;;13.75;;
68386;SDS011;55338;43.062;25.624;2022-08-05T06:21:53;31.90;;;14.32;;
68386;SDS011;55338;43.062;25.624;2022-08-05T06:24:18;24.10;;;11.77;;
68386;SDS011;55338;43.062;25.624;2022-08-05T06:26:44;23.38;;;12.07;;
68386;SDS011;55338;43.062;25.624;2022-08-05T06:29:10;19.98;;;12.40;;
68386;SDS011;55338;43.062;25.624;2022-08-05T06:31:36;21.40;;;13.07;;
68386;SDS011;55338;43.062;25.624;2022-08-05T06:34:03;27.17;;;13.80;;
68386;SDS011;55338;43.062;25.624;2022-08-05T06:36:29;21.67;;;13.93;;
68386;SDS011;55338;43.062;25.624;2022-08-05T06:38:55;30.80;;;15.43;;
68386;SDS011;55338;43.062;25.624;2022-08-05T06:41:21;24.90;;;14.10;;
68386;SDS011;55338;43.062;25.624;2022-08-05T06:43:47;23.90;;;14.07;;
68386;SDS011;55338;43.062;25.624;2022-08-05T06:46:13;22.38;;;12.52;;
68386;SDS011;55338;43.062;25.624;2022-08-05T06:48:39;18.50;;;13.00;;
68386;SDS011;55338;43.062;25.624;2022-08-05T06:51:05;21.20;;;12.33;;
68386;SDS011;55338;43.062;25.624;2022-08-05T06:53:31;15.90;;;10.40;;
68386;SDS011;55338;43.062;25.624;2022-08-05T06:55:59;16.80;;;10.15;;
68386;SDS011;55338;43.062;25.624;2022-08-05T06:58:25;14.13;;;9.20;;
68386;SDS011;55338;43.062;25.624;2022-08-05T07:00:51;10.05;;;7.82;;
68386;SDS011;55338;43.062;25.624;2022-08-05T07:03:17;14.93;;;7.77;;
68386;SDS011;55338;43.062;25.624;2022-08-05T07:05:43;10.90;;;6.88;;
68386;SDS011;55338;43.062;25.624;2022-08-05T07:08:09;10.97;;;6.60;;
68386;SDS011;55338;43.062;25.624;2022-08-05T07:10:35;14.05;;;5.75;;
68386;SDS011;55338;43.062;25.624;2022-08-05T07:13:01;11.80;;;4.97;;
68386;SDS011;55338;43.062;25.624;2022-08-05T07:15:46;10.15;;;6.07;;
68386;SDS011;55338;43.062;25.624;2022-08-05T07:18:30;12.97;;;4.47;;
68386;SDS011;55338;43.062;25.624;2022-08-05T07:20:56;9.32;;;4.13;;
68386;SDS011;55338;43.062;25.624;2022-08-05T07:23:21;6.87;;;3.70;;
68386;SDS011;55338;43.062;25.624;2022-08-05T07:25:47;6.50;;;4.03;;
68386;SDS011;55338;43.062;25.624;2022-08-05T07:28:13;5.00;;;3.67;;
68386;SDS011;55338;43.062;25.624;2022-08-05T07:30:39;8.43;;;3.07;;
68386;SDS011;55338;43.062;25.624;2022-08-05T07:33:06;4.97;;;4.10;;
68386;SDS011;55338;43.062;25.624;2022-08-05T07:35:33;5.25;;;3.78;;
68386;SDS011;55338;43.062;25.624;2022-08-05T07:37:59;5.83;;;3.27;;
68386;SDS011;55338;43.062;25.624;2022-08-05T07:40:25;4.38;;;3.22;;
68386;SDS011;55338;43.062;25.624;2022-08-05T07:42:51;4.45;;;3.33;;
68386;SDS011;55338;43.062;25.624;2022-08-05T07:45:16;7.33;;;3.57;;
68386;SDS011;55338;43.062;25.624;2022-08-05T07:47:43;5.82;;;3.35;;
68386;SDS011;55338;43.062;25.624;2022-08-05T07:50:08;4.43;;;3.13;;
68386;SDS011;55338;43.062;25.624;2022-08-05T07:52:38;4.35;;;2.80;;
68386;SDS011;55338;43.062;25.624;2022-08-05T07:55:05;4.80;;;3.53;;
68386;SDS011;55338;43.062;25.624;2022-08-05T07:57:31;3.90;;;2.80;;
68386;SDS011;55338;43.062;25.624;2022-08-05T07:59:57;4.70;;;2.97;;
68386;SDS011;55338;43.062;25.624;2022-08-05T08:02:23;6.05;;;3.15;;
68386;SDS011;55338;43.062;25.624;2022-08-05T08:04:50;3.92;;;3.20;;
68386;SDS011;55338;43.062;25.624;2022-08-05T08:07:16;4.23;;;2.60;;
68386;SDS011;55338;43.062;25.624;2022-08-05T08:09:44;3.80;;;3.33;;
68386;SDS011;55338;43.062;25.624;2022-08-05T08:12:10;6.05;;;3.50;;
68386;SDS011;55338;43.062;25.624;2022-08-05T08:14:39;4.80;;;3.05;;
68386;SDS011;55338;43.062;25.624;2022-08-05T08:17:05;4.35;;;3.13;;
68386;SDS011;55338;43.062;25.624;2022-08-05T08:19:41;4.63;;;3.00;;
68386;SDS011;55338;43.062;25.624;2022-08-05T08:22:07;4.40;;;3.47;;
68386;SDS011;55338;43.062;25.624;2022-08-05T08:24:34;5.25;;;3.30;;
68386;SDS011;55338;43.062;25.624;2022-08-05T08:27:01;5.25;;;3.20;;
68386;SDS011;55338;43.062;25.624;2022-08-05T08:29:27;6.00;;;3.55;;
68386;SDS011;55338;43.062;25.624;2022-08-05T08:31:53;7.00;;;3.00;;
68386;SDS011;55338;43.062;25.624;2022-08-05T08:34:20;4.18;;;3.10;;
68386;SDS011;55338;43.062;25.624;2022-08-05T08:36:48;4.55;;;3.92;;
68386;SDS011;55338;43.062;25.624;2022-08-05T08:39:14;5.05;;;3.30;;
68386;SDS011;55338;43.062;25.624;2022-08-05T08:41:43;5.17;;;3.73;;
68386;SDS011;55338;43.062;25.624;2022-08-05T08:44:17;4.47;;;3.80;;
68386;SDS011;55338;43.062;25.624;2022-08-05T08:46:44;5.05;;;3.35;;
68386;SDS011;55338;43.062;25.624;2022-08-05T08:49:12;4.78;;;3.53;;
68386;SDS011;55338;43.062;25.624;2022-08-05T08:51:39;5.05;;;4.30;;
68386;SDS011;55338;43.062;25.624;2022-08-05T08:54:06;5.00;;;3.40;;
68386;SDS011;55338;43.062;25.624;2022-08-05T08:56:34;5.80;;;3.60;;
68386;SDS011;55338;43.062;25.624;2022-08-05T08:59:05;5.10;;;3.55;;
68386;SDS011;55338;43.062;25.624;2022-08-05T09:01:31;5.95;;;3.60;;
68386;SDS011;55338;43.062;25.624;2022-08-05T09:03:57;11.10;;;3.30;;
68386;SDS011;55338;43.062;25.624;2022-08-05T09:06:28;7.13;;;3.53;;
68386;SDS011;55338;43.062;25.624;2022-08-05T09:08:55;6.78;;;3.80;;
68386;SDS011;55338;43.062;25.624;2022-08-05T09:11:25;5.97;;;3.67;;
68386;SDS011;55338;43.062;25.624;2022-08-05T09:13:51;4.70;;;3.75;;
68386;SDS011;55338;43.062;25.624;2022-08-05T09:16:18;7.27;;;3.37;;
68386;SDS011;55338;43.062;25.624;2022-08-05T09:18:44;4.43;;;3.88;;
68386;SDS011;55338;43.062;25.624;2022-08-05T09:21:10;5.43;;;4.10;;
68386;SDS011;55338;43.062;25.624;2022-08-05T09:23:36;7.47;;;4.18;;
68386;SDS011;55338;43.062;25.624;2022-08-05T09:26:06;5.27;;;3.60;;
68386;SDS011;55338;43.062;25.624;2022-08-05T09:28:35;4.78;;;3.83;;
68386;SDS011;55338;43.062;25.624;2022-08-05T09:31:03;5.57;;;3.90;;
68386;SDS011;55338;43.062;25.624;2022-08-05T09:33:30;8.32;;;4.35;;
68386;SDS011;55338;43.062;25.624;2022-08-05T09:36:00;6.73;;;4.10;;
68386;SDS011;55338;43.062;25.624;2022-08-05T09:38:28;7.38;;;4.15;;
68386;SDS011;55338;43.062;25.624;2022-08-05T09:41:02;5.90;;;4.35;;
68386;SDS011;55338;43.062;25.624;2022-08-05T09:43:33;4.50;;;3.45;;
68386;SDS011;55338;43.062;25.624;2022-08-05T09:46:01;7.97;;;4.35;;
68386;SDS011;55338;43.062;25.624;2022-08-05T09:48:31;4.73;;;4.03;;
68386;SDS011;55338;43.062;25.624;2022-08-05T09:50:59;4.88;;;4.00;;
68386;SDS011;55338;43.062;25.624;2022-08-05T09:56:33;5.85;;;4.60;;
68386;SDS011;55338;43.062;25.624;2022-08-05T09:59:06;9.75;;;4.68;;
68386;SDS011;55338;43.062;25.624;2022-08-05T10:01:35;4.80;;;4.20;;
68386;SDS011;55338;43.062;25.624;2022-08-05T10:04:05;6.47;;;4.40;;
68386;SDS011;55338;43.062;25.624;2022-08-05T10:06:34;5.97;;;4.72;;
68386;SDS011;55338;43.062;25.624;2022-08-05T10:09:14;4.85;;;4.10;;
68386;SDS011;55338;43.062;25.624;2022-08-05T10:11:42;5.65;;;5.03;;
68386;SDS011;55338;43.062;25.624;2022-08-05T10:14:28;6.20;;;4.33;;
68386;SDS011;55338;43.062;25.624;2022-08-05T10:16:56;10.40;;;4.85;;
68386;SDS011;55338;43.062;25.624;2022-08-05T10:19:37;6.70;;;4.63;;
68386;SDS011;55338;43.062;25.624;2022-08-05T10:22:03;4.70;;;4.13;;
68386;SDS011;55338;43.062;25.624;2022-08-05T10:24:31;5.05;;;4.43;;
68386;SDS011;55338;43.062;25.624;2022-08-05T10:26:57;6.40;;;4.17;;
68386;SDS011;55338;43.062;25.624;2022-08-05T10:29:24;5.60;;;4.72;;
68386;SDS011;55338;43.062;25.624;2022-08-05T10:31:53;4.82;;;4.30;;
68386;SDS011;55338;43.062;25.624;2022-08-05T10:34:20;5.95;;;4.53;;
68386;SDS011;55338;43.062;25.624;2022-08-05T10:36:46;4.40;;;3.40;;
68386;SDS011;55338;43.062;25.624;2022-08-05T10:39:16;7.35;;;4.13;;
68386;SDS011;55338;43.062;25.624;2022-08-05T10:42:02;6.28;;;3.97;;
68386;SDS011;55338;43.062;25.624;2022-08-05T10:44:35;5.65;;;4.93;;
68386;SDS011;55338;43.062;25.624;2022-08-05T10:47:10;7.72;;;4.38;;
68386;SDS011;55338;43.062;25.624;2022-08-05T10:49:58;7.00;;;4.20;;
68386;SDS011;55338;43.062;25.624;2022-08-05T10:52:42;4.47;;;4.05;;
68386;SDS011;55338;43.062;25.624;2022-08-05T10:55:11;7.38;;;5.22;;
68386;SDS011;55338;43.062;25.624;2022-08-05T10:57:38;6.30;;;4.63;;
68386;SDS011;55338;43.062;25.624;2022-08-05T11:00:10;6.65;;;4.95;;
68386;SDS011;55338;43.062;25.624;2022-08-05T11:03:26;5.00;;;4.33;;
68386;SDS011;55338;43.062;25.624;2022-08-05T11:05:35;6.15;;;4.65;;
68386;SDS011;55338;43.062;25.624;2022-08-05T11:08:04;5.68;;;4.65;;
68386;SDS011;55338;43.062;25.624;2022-08-05T11:10:34;4.57;;;3.90;;
68386;SDS011;55338;43.062;25.624;2022-08-05T11:13:01;7.22;;;4.32;;
68386;SDS011;55338;43.062;25.624;2022-08-05T11:15:31;5.17;;;4.23;;
68386;SDS011;55338;43.062;25.624;2022-08-05T11:20:50;5.32;;;4.50;;
68386;SDS011;55338;43.062;25.624;2022-08-05T11:26:10;6.47;;;4.82;;
68386;SDS011;55338;43.062;25.624;2022-08-05T11:28:46;7.47;;;4.50;;
68386;SDS011;55338;43.062;25.624;2022-08-05T11:31:17;6.18;;;4.80;;
68386;SDS011;55338;43.062;25.624;2022-08-05T11:36:14;5.07;;;4.40;;
68386;SDS011;55338;43.062;25.624;2022-08-05T11:41:21;8.90;;;4.60;;
68386;SDS011;55338;43.062;25.624;2022-08-05T11:44:07;6.68;;;4.80;;
68386;SDS011;55338;43.062;25.624;2022-08-05T11:49:10;7.97;;;6.77;;
68386;SDS011;55338;43.062;25.624;2022-08-05T11:51:40;7.78;;;5.55;;
68386;SDS011;55338;43.062;25.624;2022-08-05T11:54:11;6.30;;;5.70;;
68386;SDS011;55338;43.062;25.624;2022-08-05T11:56:44;6.63;;;6.03;;
68386;SDS011;55338;43.062;25.624;2022-08-05T11:59:13;6.70;;;5.28;;
68386;SDS011;55338;43.062;25.624;2022-08-05T12:02:03;9.00;;;5.23;;
68386;SDS011;55338;43.062;25.624;2022-08-05T12:04:43;6.55;;;5.45;;
68386;SDS011;55338;43.062;25.624;2022-08-05T12:07:13;8.15;;;5.53;;
68386;SDS011;55338;43.062;25.624;2022-08-05T12:09:42;5.25;;;4.72;;
68386;SDS011;55338;43.062;25.624;2022-08-05T12:12:11;6.15;;;5.03;;
68386;SDS011;55338;43.062;25.624;2022-08-05T12:14:38;8.37;;;5.20;;
68386;SDS011;55338;43.062;25.624;2022-08-05T12:17:08;5.40;;;4.90;;
68386;SDS011;55338;43.062;25.624;2022-08-05T12:19:42;5.82;;;4.47;;
68386;SDS011;55338;43.062;25.624;2022-08-05T12:22:12;8.20;;;5.25;;
68386;SDS011;55338;43.062;25.624;2022-08-05T12:24:39;8.90;;;4.83;;
68386;SDS011;55338;43.062;25.624;2022-08-05T12:27:08;6.82;;;5.35;;
68386;SDS011;55338;43.062;25.624;2022-08-05T12:29:34;8.50;;;4.97;;
68386;SDS011;55338;43.062;25.624;2022-08-05T12:32:01;7.22;;;5.43;;
68386;SDS011;55338;43.062;25.624;2022-08-05T12:34:33;6.30;;;4.97;;
68386;SDS011;55338;43.062;25.624;2022-08-05T12:37:01;5.57;;;4.53;;
68386;SDS011;55338;43.062;25.624;2022-08-05T12:39:35;6.97;;;4.78;;
68386;SDS011;55338;43.062;25.624;2022-08-05T12:42:06;6.30;;;5.13;;
68386;SDS011;55338;43.062;25.624;2022-08-05T12:44:34;8.30;;;5.28;;
68386;SDS011;55338;43.062;25.624;2022-08-05T12:47:00;5.03;;;4.28;;
68386;SDS011;55338;43.062;25.624;2022-08-05T12:49:37;5.27;;;4.37;;
68386;SDS011;55338;43.062;25.624;2022-08-05T12:52:04;6.90;;;4.30;;
68386;SDS011;55338;43.062;25.624;2022-08-05T12:54:40;10.43;;;5.60;;
68386;SDS011;55338;43.062;25.624;2022-08-05T12:57:07;6.05;;;4.82;;
68386;SDS011;55338;43.062;25.624;2022-08-05T13:02:10;9.67;;;5.03;;
68386;SDS011;55338;43.062;25.624;2022-08-05T13:04:40;6.80;;;4.32;;
68386;SDS011;55338;43.062;25.624;2022-08-05T13:07:08;5.18;;;4.20;;
68386;SDS011;55338;43.062;25.624;2022-08-05T13:09:39;4.82;;;4.32;;
68386;SDS011;55338;43.062;25.624;2022-08-05T13:12:14;6.22;;;5.47;;
68386;SDS011;55338;43.062;25.624;2022-08-05T13:14:44;5.43;;;4.73;;
68386;SDS011;55338;43.062;25.624;2022-08-05T13:22:29;7.25;;;5.32;;
68386;SDS011;55338;43.062;25.624;2022-08-05T13:25:00;7.53;;;5.80;;
68386;SDS011;55338;43.062;25.624;2022-08-05T13:27:28;5.60;;;4.40;;
68386;SDS011;55338;43.062;25.624;2022-08-05T13:29:56;5.18;;;4.35;;
68386;SDS011;55338;43.062;25.624;2022-08-05T13:32:22;5.22;;;4.43;;
68386;SDS011;55338;43.062;25.624;2022-08-05T13:34:49;8.65;;;4.50;;
68386;SDS011;55338;43.062;25.624;2022-08-05T13:37:16;5.57;;;4.90;;
68386;SDS011;55338;43.062;25.624;2022-08-05T13:39:42;6.50;;;3.77;;
68386;SDS011;55338;43.062;25.624;2022-08-05T13:42:08;5.28;;;3.97;;
68386;SDS011;55338;43.062;25.624;2022-08-05T13:44:36;4.72;;;4.28;;
68386;SDS011;55338;43.062;25.624;2022-08-05T13:47:02;4.20;;;3.60;;
68386;SDS011;55338;43.062;25.624;2022-08-05T13:49:27;5.20;;;4.30;;
68386;SDS011;55338;43.062;25.624;2022-08-05T13:51:53;5.57;;;4.45;;
68386;SDS011;55338;43.062;25.624;2022-08-05T13:54:19;7.20;;;5.00;;
68386;SDS011;55338;43.062;25.624;2022-08-05T13:56:45;5.30;;;3.53;;
68386;SDS011;55338;43.062;25.624;2022-08-05T13:59:11;5.03;;;4.00;;
68386;SDS011;55338;43.062;25.624;2022-08-05T14:01:37;6.20;;;3.63;;
68386;SDS011;55338;43.062;25.624;2022-08-05T14:04:03;5.22;;;4.65;;
68386;SDS011;55338;43.062;25.624;2022-08-05T14:06:47;5.10;;;4.15;;
68386;SDS011;55338;43.062;25.624;2022-08-05T14:09:13;4.85;;;4.05;;
68386;SDS011;55338;43.062;25.624;2022-08-05T14:11:39;6.27;;;3.80;;
68386;SDS011;55338;43.062;25.624;2022-08-05T14:14:08;6.80;;;4.05;;
68386;SDS011;55338;43.062;25.624;2022-08-05T14:16:34;5.95;;;3.67;;
68386;SDS011;55338;43.062;25.624;2022-08-05T14:19:00;5.80;;;3.90;;
68386;SDS011;55338;43.062;25.624;2022-08-05T14:21:25;5.80;;;4.10;;
68386;SDS011;55338;43.062;25.624;2022-08-05T14:23:51;6.80;;;4.53;;
68386;SDS011;55338;43.062;25.624;2022-08-05T14:26:17;4.55;;;3.47;;
68386;SDS011;55338;43.062;25.624;2022-08-05T14:28:43;5.35;;;3.50;;
68386;SDS011;55338;43.062;25.624;2022-08-05T14:31:09;5.43;;;4.57;;
68386;SDS011;55338;43.062;25.624;2022-08-05T14:33:35;5.30;;;3.80;;
68386;SDS011;55338;43.062;25.624;2022-08-05T14:36:01;4.38;;;3.97;;
68386;SDS011;55338;43.062;25.624;2022-08-05T14:38:27;5.10;;;3.70;;
68386;SDS011;55338;43.062;25.624;2022-08-05T14:40:53;4.97;;;4.47;;
68386;SDS011;55338;43.062;25.624;2022-08-05T14:43:20;6.28;;;4.07;;
68386;SDS011;55338;43.062;25.624;2022-08-05T14:45:46;4.47;;;4.00;;
68386;SDS011;55338;43.062;25.624;2022-08-05T14:48:12;8.43;;;4.47;;
68386;SDS011;55338;43.062;25.624;2022-08-05T14:50:37;4.75;;;4.30;;
68386;SDS011;55338;43.062;25.624;2022-08-05T14:53:03;7.23;;;3.73;;
68386;SDS011;55338;43.062;25.624;2022-08-05T14:55:29;6.13;;;3.45;;
68386;SDS011;55338;43.062;25.624;2022-08-05T14:57:54;5.43;;;3.97;;
68386;SDS011;55338;43.062;25.624;2022-08-05T15:00:21;5.00;;;4.07;;
68386;SDS011;55338;43.062;25.624;2022-08-05T15:02:47;4.90;;;4.22;;
68386;SDS011;55338;43.062;25.624;2022-08-05T15:05:13;4.40;;;3.47;;
68386;SDS011;55338;43.062;25.624;2022-08-05T15:07:39;4.32;;;3.30;;
68386;SDS011;55338;43.062;25.624;2022-08-05T15:10:05;5.07;;;4.13;;
68386;SDS011;55338;43.062;25.624;2022-08-05T15:12:32;5.20;;;3.83;;
68386;SDS011;55338;43.062;25.624;2022-08-05T15:14:58;5.63;;;3.58;;
68386;SDS011;55338;43.062;25.624;2022-08-05T15:17:24;4.50;;;3.47;;